<?xml version="1.0" encoding="UTF-8" standalone="no" ?><gpx xmlns="http://www.topografix.com/GPX/1/1" xmlns:gpxx="http://www.garmin.com/xmlschemas/GpxExtensions/v3" xmlns:wptx1="http://www.garmin.com/xmlschemas/WaypointExtension/v1" xmlns:gpxtpx="http://www.garmin.com/xmlschemas/TrackPointExtension/v1" creator="GuideVTT.com" version="1.1" xmlns:xsi="http://www.w3.org/2001/XMLSchema-instance" xsi:schemaLocation="http://www.topografix.com/GPX/1/1 http://www.topografix.com/GPX/1/1/gpx.xsd http://www.garmin.com/xmlschemas/GpxExtensions/v3 http://www8.garmin.com/xmlschemas/GpxExtensionsv3.xsd http://www.garmin.com/xmlschemas/WaypointExtension/v1 http://www8.garmin.com/xmlschemas/WaypointExtensionv1.xsd http://www.garmin.com/xmlschemas/TrackPointExtension/v1 http://www.garmin.com/xmlschemas/TrackPointExtensionv1.xsd">
<metadata><link href="http://www.garmin.com"><text>Garmin International</text></link><time>2013-06-22T15:13:50Z</time></metadata>
<trk><name>rp_2007_8.gpx</name><extensions><gpxx:TrackExtension><gpxx:DisplayColor>Cyan</gpxx:DisplayColor></gpxx:TrackExtension></extensions><trkseg>
<trkpt lat="46.20583530" lon="7.44044780"><ele>1559.395752</ele><time>2007-06-23T15:11:45Z</time></trkpt>
<trkpt lat="46.20491270" lon="7.43980410"><ele>1570.931641</ele><time>2007-06-23T15:13:04Z</time></trkpt>
<trkpt lat="46.20461230" lon="7.43967530"><ele>1575.738037</ele><time>2007-06-23T15:13:19Z</time></trkpt>
<trkpt lat="46.20448350" lon="7.43986850"><ele>1576.21875</ele><time>2007-06-23T15:13:33Z</time></trkpt>
<trkpt lat="46.20536330" lon="7.44064090"><ele>1580.544922</ele><time>2007-06-23T15:14:32Z</time></trkpt>
<trkpt lat="46.20559930" lon="7.44089840"><ele>1584.87085</ele><time>2007-06-23T15:14:50Z</time></trkpt>
<trkpt lat="46.20577100" lon="7.44154210"><ele>1586.312744</ele><time>2007-06-23T15:15:18Z</time></trkpt>
<trkpt lat="46.20585680" lon="7.44265790"><ele>1590.638428</ele><time>2007-06-23T15:16:10Z</time></trkpt>
<trkpt lat="46.20604990" lon="7.44308710"><ele>1593.041748</ele><time>2007-06-23T15:16:30Z</time></trkpt>
<trkpt lat="46.20609280" lon="7.44310860"><ele>1593.522461</ele><time>2007-06-23T15:16:32Z</time></trkpt>
<trkpt lat="46.20632890" lon="7.44340900"><ele>1599.290527</ele><time>2007-06-23T15:16:49Z</time></trkpt>
<trkpt lat="46.20684390" lon="7.44388100"><ele>1605.539063</ele><time>2007-06-23T15:17:28Z</time></trkpt>
<trkpt lat="46.20701550" lon="7.44407420"><ele>1609.384277</ele><time>2007-06-23T15:17:43Z</time></trkpt>
<trkpt lat="46.20718720" lon="7.44431020"><ele>1612.749023</ele><time>2007-06-23T15:17:58Z</time></trkpt>
<trkpt lat="46.20750900" lon="7.44493250"><ele>1610.345459</ele><time>2007-06-23T15:18:42Z</time></trkpt>
<trkpt lat="46.20759490" lon="7.44488950"><ele>1613.710205</ele><time>2007-06-23T15:19:01Z</time></trkpt>
<trkpt lat="46.20789530" lon="7.44519000"><ele>1619.95874</ele><time>2007-06-23T15:19:26Z</time></trkpt>
<trkpt lat="46.20821710" lon="7.44538310"><ele>1622.842773</ele><time>2007-06-23T15:19:42Z</time></trkpt>
<trkpt lat="46.20913980" lon="7.44609120"><ele>1634.859375</ele><time>2007-06-23T15:20:44Z</time></trkpt>
<trkpt lat="46.20952610" lon="7.44609120"><ele>1635.339844</ele><time>2007-06-23T15:21:07Z</time></trkpt>
<trkpt lat="46.20993380" lon="7.44589810"><ele>1636.30127</ele><time>2007-06-23T15:21:30Z</time></trkpt>
<trkpt lat="46.21100660" lon="7.44516850"><ele>1645.914551</ele><time>2007-06-23T15:22:30Z</time></trkpt>
<trkpt lat="46.21150020" lon="7.44499680"><ele>1651.20166</ele><time>2007-06-23T15:22:58Z</time></trkpt>
<trkpt lat="46.21171470" lon="7.44495390"><ele>1654.566162</ele><time>2007-06-23T15:23:11Z</time></trkpt>
<trkpt lat="46.21199370" lon="7.44501830"><ele>1660.334229</ele><time>2007-06-23T15:23:26Z</time></trkpt>
<trkpt lat="46.21240140" lon="7.44523290"><ele>1665.140869</ele><time>2007-06-23T15:23:49Z</time></trkpt>
<trkpt lat="46.21272330" lon="7.44525430"><ele>1666.102051</ele><time>2007-06-23T15:24:10Z</time></trkpt>
<trkpt lat="46.21302370" lon="7.44514700"><ele>1666.102051</ele><time>2007-06-23T15:24:28Z</time></trkpt>
<trkpt lat="46.21377470" lon="7.44497540"><ele>1666.582764</ele><time>2007-06-23T15:25:19Z</time></trkpt>
<trkpt lat="46.21422530" lon="7.44450330"><ele>1667.063477</ele><time>2007-06-23T15:25:50Z</time></trkpt>
<trkpt lat="46.21493340" lon="7.44349480"><ele>1668.024658</ele><time>2007-06-23T15:26:44Z</time></trkpt>
<trkpt lat="46.21531960" lon="7.44289400"><ele>1676.196045</ele><time>2007-06-23T15:27:25Z</time></trkpt>
<trkpt lat="46.21564150" lon="7.44255070"><ele>1676.196045</ele><time>2007-06-23T15:27:45Z</time></trkpt>
<trkpt lat="46.21587750" lon="7.44259360"><ele>1678.599365</ele><time>2007-06-23T15:27:58Z</time></trkpt>
<trkpt lat="46.21596340" lon="7.44270090"><ele>1679.079834</ele><time>2007-06-23T15:28:05Z</time></trkpt>
<trkpt lat="46.21549130" lon="7.44295840"><ele>1688.212402</ele><time>2007-06-23T15:28:26Z</time></trkpt>
<trkpt lat="46.21512650" lon="7.44355920"><ele>1689.173584</ele><time>2007-06-23T15:28:54Z</time></trkpt>
<trkpt lat="46.21461150" lon="7.44521140"><ele>1690.615479</ele><time>2007-06-23T15:29:57Z</time></trkpt>
<trkpt lat="46.21433260" lon="7.44621990"><ele>1691.096191</ele><time>2007-06-23T15:30:37Z</time></trkpt>
<trkpt lat="46.21392490" lon="7.44748590"><ele>1692.057861</ele><time>2007-06-23T15:31:27Z</time></trkpt>
<trkpt lat="46.21321680" lon="7.44875190"><ele>1693.980469</ele><time>2007-06-23T15:32:30Z</time></trkpt>
<trkpt lat="46.21302370" lon="7.44918110"><ele>1694.460938</ele><time>2007-06-23T15:32:52Z</time></trkpt>
<trkpt lat="46.20873210" lon="7.45109080"><ele>1773.769775</ele><time>2007-06-23T15:39:27Z</time></trkpt>
<trkpt lat="46.20926860" lon="7.45139120"><ele>1764.156494</ele><time>2007-06-23T15:39:49Z</time></trkpt>
<trkpt lat="46.20920420" lon="7.45149850"><ele>1789.631592</ele><time>2007-06-23T15:41:14Z</time></trkpt>
<trkpt lat="46.20836730" lon="7.45156290"><ele>1791.554199</ele><time>2007-06-23T15:42:09Z</time></trkpt>
<trkpt lat="46.20802400" lon="7.45147710"><ele>1793.476807</ele><time>2007-06-23T15:42:31Z</time></trkpt>
<trkpt lat="46.20727300" lon="7.45143410"><ele>1794.918701</ele><time>2007-06-23T15:43:19Z</time></trkpt>
<trkpt lat="46.20650050" lon="7.45169160"><ele>1796.36084</ele><time>2007-06-23T15:44:11Z</time></trkpt>
<trkpt lat="46.20611430" lon="7.45199200"><ele>1797.322021</ele><time>2007-06-23T15:44:37Z</time></trkpt>
<trkpt lat="46.20598550" lon="7.45205640"><ele>1797.322021</ele><time>2007-06-23T15:44:45Z</time></trkpt>
<trkpt lat="46.20495560" lon="7.45179890"><ele>1813.183838</ele><time>2007-06-23T15:45:30Z</time></trkpt>
<trkpt lat="46.20373250" lon="7.45194910"><ele>1834.332764</ele><time>2007-06-23T15:46:37Z</time></trkpt>
<trkpt lat="46.20364670" lon="7.45224950"><ele>1836.255615</ele><time>2007-06-23T15:46:57Z</time></trkpt>
<trkpt lat="46.20407580" lon="7.45239970"><ele>1843.465332</ele><time>2007-06-23T15:47:21Z</time></trkpt>
<trkpt lat="46.20444060" lon="7.45282890"><ele>1847.310547</ele><time>2007-06-23T15:47:44Z</time></trkpt>
<trkpt lat="46.20478390" lon="7.45360140"><ele>1852.117188</ele><time>2007-06-23T15:48:31Z</time></trkpt>
<trkpt lat="46.20536330" lon="7.45297910"><ele>1852.117188</ele><time>2007-06-23T15:48:35Z</time></trkpt>
<trkpt lat="46.20553490" lon="7.45306490"><ele>1857.404541</ele><time>2007-06-23T15:48:46Z</time></trkpt>
<trkpt lat="46.20607140" lon="7.45315070"><ele>1863.652832</ele><time>2007-06-23T15:48:57Z</time></trkpt>
<trkpt lat="46.20641470" lon="7.45306490"><ele>1866.056152</ele><time>2007-06-23T15:49:13Z</time></trkpt>
<trkpt lat="46.20673660" lon="7.45276450"><ele>1867.97876</ele><time>2007-06-23T15:49:41Z</time></trkpt>
<trkpt lat="46.20697260" lon="7.45270010"><ele>1867.97876</ele><time>2007-06-23T15:50:00Z</time></trkpt>
<trkpt lat="46.20800260" lon="7.45370860"><ele>1886.724609</ele><time>2007-06-23T15:50:20Z</time></trkpt>
<trkpt lat="46.20858190" lon="7.45454550"><ele>1887.205322</ele><time>2007-06-23T15:51:08Z</time></trkpt>
<trkpt lat="46.20892520" lon="7.45454550"><ele>1887.205322</ele><time>2007-06-23T15:51:31Z</time></trkpt>
<trkpt lat="46.20956900" lon="7.45383740"><ele>1891.050537</ele><time>2007-06-23T15:51:47Z</time></trkpt>
<trkpt lat="46.20999810" lon="7.45413780"><ele>1892.973145</ele><time>2007-06-23T15:52:07Z</time></trkpt>
<trkpt lat="46.21040580" lon="7.45426650"><ele>1893.453857</ele><time>2007-06-23T15:52:29Z</time></trkpt>
<trkpt lat="46.21113540" lon="7.45409490"><ele>1895.857178</ele><time>2007-06-23T15:53:03Z</time></trkpt>
<trkpt lat="46.21145730" lon="7.45420220"><ele>1904.028564</ele><time>2007-06-23T15:53:17Z</time></trkpt>
<trkpt lat="46.21186490" lon="7.45426650"><ele>1906.912354</ele><time>2007-06-23T15:53:34Z</time></trkpt>
<trkpt lat="46.21231560" lon="7.45426650"><ele>1910.757568</ele><time>2007-06-23T15:53:52Z</time></trkpt>
<trkpt lat="46.21255160" lon="7.45441680"><ele>1912.199463</ele><time>2007-06-23T15:54:04Z</time></trkpt>
<trkpt lat="46.21278760" lon="7.45445970"><ele>1914.12207</ele><time>2007-06-23T15:54:18Z</time></trkpt>
<trkpt lat="46.21300220" lon="7.45430950"><ele>1919.890137</ele><time>2007-06-23T15:54:30Z</time></trkpt>
<trkpt lat="46.21375320" lon="7.45409490"><ele>1925.177246</ele><time>2007-06-23T15:55:04Z</time></trkpt>
<trkpt lat="46.21484760" lon="7.45426650"><ele>1927.100098</ele><time>2007-06-23T15:55:52Z</time></trkpt>
<trkpt lat="46.21516940" lon="7.45454550"><ele>1930.945313</ele><time>2007-06-23T15:56:08Z</time></trkpt>
<trkpt lat="46.21542690" lon="7.45488880"><ele>1932.86792</ele><time>2007-06-23T15:56:24Z</time></trkpt>
<trkpt lat="46.21557710" lon="7.45514630"><ele>1931.906494</ele><time>2007-06-23T15:56:35Z</time></trkpt>
<trkpt lat="46.21592040" lon="7.45506050"><ele>1935.27124</ele><time>2007-06-23T15:56:52Z</time></trkpt>
<trkpt lat="46.21624230" lon="7.45518920"><ele>1941.039063</ele><time>2007-06-23T15:57:07Z</time></trkpt>
<trkpt lat="46.21632810" lon="7.45531800"><ele>1942.481201</ele><time>2007-06-23T15:57:14Z</time></trkpt>
<trkpt lat="46.21645690" lon="7.45570420"><ele>1943.442383</ele><time>2007-06-23T15:57:32Z</time></trkpt>
<trkpt lat="46.21649980" lon="7.45572570"><ele>1943.442383</ele><time>2007-06-23T15:57:43Z</time></trkpt>
<trkpt lat="46.21656420" lon="7.45587590"><ele>1940.077881</ele><time>2007-06-23T15:58:08Z</time></trkpt>
<trkpt lat="46.21665000" lon="7.45563980"><ele>1935.751953</ele><time>2007-06-23T15:58:51Z</time></trkpt>
<trkpt lat="46.21677880" lon="7.45478150"><ele>1932.387451</ele><time>2007-06-23T15:59:14Z</time></trkpt>
<trkpt lat="46.21707920" lon="7.45319370"><ele>1919.409668</ele><time>2007-06-23T15:59:46Z</time></trkpt>
<trkpt lat="46.21733670" lon="7.45222810"><ele>1917.967529</ele><time>2007-06-23T16:00:10Z</time></trkpt>
<trkpt lat="46.21759410" lon="7.45158430"><ele>1916.525635</ele><time>2007-06-23T16:00:30Z</time></trkpt>
<trkpt lat="46.21768000" lon="7.45115520"><ele>1909.796143</ele><time>2007-06-23T16:00:46Z</time></trkpt>
<trkpt lat="46.21757270" lon="7.45106940"><ele>1898.260254</ele><time>2007-06-23T16:01:19Z</time></trkpt>
<trkpt lat="46.21755120" lon="7.45102640"><ele>1899.22168</ele><time>2007-06-23T16:01:21Z</time></trkpt>
<trkpt lat="46.21761560" lon="7.45066170"><ele>1895.857178</ele><time>2007-06-23T16:01:36Z</time></trkpt>
<trkpt lat="46.21763710" lon="7.44999650"><ele>1880.956787</ele><time>2007-06-23T16:02:24Z</time></trkpt>
<trkpt lat="46.21778730" lon="7.44986770"><ele>1880.476074</ele><time>2007-06-23T16:02:44Z</time></trkpt>
<trkpt lat="46.21795890" lon="7.44926690"><ele>1874.227539</ele><time>2007-06-23T16:03:04Z</time></trkpt>
<trkpt lat="46.21808770" lon="7.44864460"><ele>1861.249756</ele><time>2007-06-23T16:03:35Z</time></trkpt>
<trkpt lat="46.21819500" lon="7.44793650"><ele>1845.868652</ele><time>2007-06-23T16:04:10Z</time></trkpt>
<trkpt lat="46.21821640" lon="7.44789360"><ele>1847.79126</ele><time>2007-06-23T16:04:19Z</time></trkpt>
<trkpt lat="46.21828080" lon="7.44785070"><ele>1841.062012</ele><time>2007-06-23T16:04:38Z</time></trkpt>
<trkpt lat="46.21813060" lon="7.44778630"><ele>1842.984619</ele><time>2007-06-23T16:05:26Z</time></trkpt>
<trkpt lat="46.21823790" lon="7.44731430"><ele>1828.564941</ele><time>2007-06-23T16:05:59Z</time></trkpt>
<trkpt lat="46.21821640" lon="7.44684220"><ele>1822.316406</ele><time>2007-06-23T16:06:15Z</time></trkpt>
<trkpt lat="46.21815200" lon="7.44686370"><ele>1820.874512</ele><time>2007-06-23T16:06:21Z</time></trkpt>
<trkpt lat="46.21817350" lon="7.44690660"><ele>1817.990234</ele><time>2007-06-23T16:06:29Z</time></trkpt>
<trkpt lat="46.21853830" lon="7.44677780"><ele>1814.14502</ele><time>2007-06-23T16:06:44Z</time></trkpt>
<trkpt lat="46.21877430" lon="7.44699240"><ele>1809.819092</ele><time>2007-06-23T16:06:55Z</time></trkpt>
<trkpt lat="46.21898890" lon="7.44724990"><ele>1808.85791</ele><time>2007-06-23T16:07:20Z</time></trkpt>
<trkpt lat="46.21868850" lon="7.44682070"><ele>1806.45459</ele><time>2007-06-23T16:07:41Z</time></trkpt>
<trkpt lat="46.21838810" lon="7.44682070"><ele>1805.493408</ele><time>2007-06-23T16:07:53Z</time></trkpt>
<trkpt lat="46.21787310" lon="7.44712110"><ele>1805.012695</ele><time>2007-06-23T16:08:15Z</time></trkpt>
<trkpt lat="46.21768000" lon="7.44718550"><ele>1805.012695</ele><time>2007-06-23T16:08:19Z</time></trkpt>
<trkpt lat="46.21757270" lon="7.44716410"><ele>1806.935303</ele><time>2007-06-23T16:08:21Z</time></trkpt>
<trkpt lat="46.21718650" lon="7.44684220"><ele>1807.896729</ele><time>2007-06-23T16:08:28Z</time></trkpt>
<trkpt lat="46.21665000" lon="7.44619850"><ele>1803.570557</ele><time>2007-06-23T16:08:40Z</time></trkpt>
<trkpt lat="46.21630670" lon="7.44615550"><ele>1803.089844</ele><time>2007-06-23T16:08:46Z</time></trkpt>
<trkpt lat="46.21607070" lon="7.44621990"><ele>1803.089844</ele><time>2007-06-23T16:08:50Z</time></trkpt>
<trkpt lat="46.21495490" lon="7.44686370"><ele>1802.609131</ele><time>2007-06-23T16:09:12Z</time></trkpt>
<trkpt lat="46.21437550" lon="7.44694950"><ele>1802.128418</ele><time>2007-06-23T16:09:20Z</time></trkpt>
<trkpt lat="46.21291640" lon="7.44772200"><ele>1799.244629</ele><time>2007-06-23T16:09:44Z</time></trkpt>
<trkpt lat="46.21293780" lon="7.44752880"><ele>1799.244629</ele><time>2007-06-23T16:09:51Z</time></trkpt>
<trkpt lat="46.21373180" lon="7.44727130"><ele>1795.399414</ele><time>2007-06-23T16:10:04Z</time></trkpt>
<trkpt lat="46.21441840" lon="7.44632720"><ele>1792.996094</ele><time>2007-06-23T16:10:14Z</time></trkpt>
<trkpt lat="46.21452570" lon="7.44609120"><ele>1792.515625</ele><time>2007-06-23T16:10:16Z</time></trkpt>
<trkpt lat="46.21465440" lon="7.44482520"><ele>1790.592773</ele><time>2007-06-23T16:10:24Z</time></trkpt>
<trkpt lat="46.21478320" lon="7.44388100"><ele>1790.112305</ele><time>2007-06-23T16:10:32Z</time></trkpt>
<trkpt lat="46.21529820" lon="7.44291540"><ele>1786.266846</ele><time>2007-06-23T16:10:45Z</time></trkpt>
<trkpt lat="46.21559860" lon="7.44278670"><ele>1782.9021</ele><time>2007-06-23T16:10:49Z</time></trkpt>
<trkpt lat="46.21574880" lon="7.44246480"><ele>1781.940918</ele><time>2007-06-23T16:10:51Z</time></trkpt>
<trkpt lat="46.21581320" lon="7.44242190"><ele>1772.808594</ele><time>2007-06-23T16:10:56Z</time></trkpt>
<trkpt lat="46.21577020" lon="7.44248630"><ele>1772.327881</ele><time>2007-06-23T16:10:57Z</time></trkpt>
<trkpt lat="46.21566300" lon="7.44250770"><ele>1771.846924</ele><time>2007-06-23T16:10:59Z</time></trkpt>
<trkpt lat="46.21345280" lon="7.44452480"><ele>1770.405029</ele><time>2007-06-23T16:11:34Z</time></trkpt>
<trkpt lat="46.21310950" lon="7.44480370"><ele>1770.405029</ele><time>2007-06-23T16:11:39Z</time></trkpt>
<trkpt lat="46.21272330" lon="7.44480370"><ele>1767.040527</ele><time>2007-06-23T16:11:43Z</time></trkpt>
<trkpt lat="46.21220830" lon="7.44495390"><ele>1764.637207</ele><time>2007-06-23T16:11:49Z</time></trkpt>
<trkpt lat="46.21154310" lon="7.44467500"><ele>1756.466064</ele><time>2007-06-23T16:11:57Z</time></trkpt>
<trkpt lat="46.21062040" lon="7.44480370"><ele>1741.084961</ele><time>2007-06-23T16:12:08Z</time></trkpt>
<trkpt lat="46.20935440" lon="7.44536160"><ele>1732.433105</ele><time>2007-06-23T16:12:22Z</time></trkpt>
<trkpt lat="46.20903250" lon="7.44555470"><ele>1724.261963</ele><time>2007-06-23T16:12:26Z</time></trkpt>
<trkpt lat="46.20778800" lon="7.44491100"><ele>1711.764893</ele><time>2007-06-23T16:12:43Z</time></trkpt>
<trkpt lat="46.20695110" lon="7.44416000"><ele>1699.267578</ele><time>2007-06-23T16:12:56Z</time></trkpt>
<trkpt lat="46.20705840" lon="7.44375230"><ele>1695.903076</ele><time>2007-06-23T16:13:00Z</time></trkpt>
<trkpt lat="46.20613570" lon="7.44248630"><ele>1690.13501</ele><time>2007-06-23T16:13:14Z</time></trkpt>
<trkpt lat="46.20589970" lon="7.44201420"><ele>1689.173584</ele><time>2007-06-23T16:13:18Z</time></trkpt>
<trkpt lat="46.20559930" lon="7.44064090"><ele>1676.676758</ele><time>2007-06-23T16:13:27Z</time></trkpt>
<trkpt lat="46.20497700" lon="7.44031910"><ele>1588.235352</ele><time>2007-06-23T16:13:35Z</time></trkpt>
<trkpt lat="46.20424750" lon="7.43958950"><ele>1581.986816</ele><time>2007-06-23T16:13:43Z</time></trkpt>
<trkpt lat="46.20414020" lon="7.43941780"><ele>1581.986816</ele><time>2007-06-23T16:13:45Z</time></trkpt>
<trkpt lat="46.20532040" lon="7.44001870"><ele>1577.660645</ele><time>2007-06-23T16:14:04Z</time></trkpt>
<trkpt lat="46.20564220" lon="7.44012590"><ele>1582.947998</ele><time>2007-06-23T16:14:31Z</time></trkpt>
</trkseg></trk></gpx>